sensor_id;sensor_type;location;lat;lon;timestamp;P1;durP1;ratioP1;P2;durP2;ratioP2
5774;SDS011;2913;51.120;6.772;2022-08-19T00:01:32;16.48;;;9.63;;
5774;SDS011;2913;51.120;6.772;2022-08-19T00:04:03;16.13;;;9.82;;
5774;SDS011;2913;51.120;6.772;2022-08-19T00:06:33;15.77;;;10.00;;
5774;SDS011;2913;51.120;6.772;2022-08-19T00:09:00;15.27;;;9.88;;
5774;SDS011;2913;51.120;6.772;2022-08-19T00:11:28;19.67;;;11.65;;
5774;SDS011;2913;51.120;6.772;2022-08-19T00:13:54;15.70;;;9.07;;
5774;SDS011;2913;51.120;6.772;2022-08-19T00:16:24;16.65;;;8.85;;
5774;SDS011;2913;51.120;6.772;2022-08-19T00:18:54;15.25;;;9.40;;
5774;SDS011;2913;51.120;6.772;2022-08-19T00:21:20;15.57;;;9.13;;
5774;SDS011;2913;51.120;6.772;2022-08-19T00:23:50;19.85;;;9.00;;
5774;SDS011;2913;51.120;6.772;2022-08-19T00:26:19;13.65;;;8.77;;
5774;SDS011;2913;51.120;6.772;2022-08-19T00:28:44;19.20;;;10.00;;
5774;SDS011;2913;51.120;6.772;2022-08-19T00:31:11;14.07;;;10.43;;
5774;SDS011;2913;51.120;6.772;2022-08-19T00:33:37;15.43;;;10.00;;
5774;SDS011;2913;51.120;6.772;2022-08-19T00:36:04;16.70;;;9.85;;
5774;SDS011;2913;51.120;6.772;2022-08-19T00:38:31;15.82;;;9.80;;
5774;SDS011;2913;51.120;6.772;2022-08-19T00:41:00;19.17;;;10.52;;
5774;SDS011;2913;51.120;6.772;2022-08-19T00:43:26;15.93;;;9.88;;
5774;SDS011;2913;51.120;6.772;2022-08-19T00:45:53;16.13;;;9.98;;
5774;SDS011;2913;51.120;6.772;2022-08-19T00:48:19;17.10;;;11.18;;
5774;SDS011;2913;51.120;6.772;2022-08-19T00:50:45;17.38;;;10.77;;
5774;SDS011;2913;51.120;6.772;2022-08-19T00:53:18;17.02;;;11.65;;
5774;SDS011;2913;51.120;6.772;2022-08-19T00:55:47;15.73;;;11.63;;
5774;SDS011;2913;51.120;6.772;2022-08-19T00:58:17;19.55;;;12.00;;
5774;SDS011;2913;51.120;6.772;2022-08-19T01:00:52;17.63;;;12.70;;
5774;SDS011;2913;51.120;6.772;2022-08-19T01:03:19;19.23;;;12.93;;
5774;SDS011;2913;51.120;6.772;2022-08-19T01:05:46;18.92;;;11.95;;
5774;SDS011;2913;51.120;6.772;2022-08-19T01:08:13;17.67;;;12.07;;
5774;SDS011;2913;51.120;6.772;2022-08-19T01:10:42;19.35;;;12.43;;
5774;SDS011;2913;51.120;6.772;2022-08-19T01:13:13;18.55;;;13.82;;
5774;SDS011;2913;51.120;6.772;2022-08-19T01:15:45;21.50;;;14.23;;
5774;SDS011;2913;51.120;6.772;2022-08-19T01:18:18;23.45;;;13.50;;
5774;SDS011;2913;51.120;6.772;2022-08-19T01:20:46;23.45;;;13.77;;
5774;SDS011;2913;51.120;6.772;2022-08-19T01:23:12;26.15;;;14.90;;
5774;SDS011;2913;51.120;6.772;2022-08-19T01:25:40;27.40;;;14.52;;
5774;SDS011;2913;51.120;6.772;2022-08-19T01:28:14;19.50;;;13.27;;
5774;SDS011;2913;51.120;6.772;2022-08-19T01:30:41;20.20;;;14.83;;
5774;SDS011;2913;51.120;6.772;2022-08-19T01:33:07;28.20;;;15.20;;
5774;SDS011;2913;51.120;6.772;2022-08-19T01:35:35;27.48;;;15.57;;
5774;SDS011;2913;51.120;6.772;2022-08-19T01:38:05;23.55;;;15.35;;
5774;SDS011;2913;51.120;6.772;2022-08-19T01:40:33;23.52;;;14.70;;
5774;SDS011;2913;51.120;6.772;2022-08-19T01:43:01;28.48;;;16.92;;
5774;SDS011;2913;51.120;6.772;2022-08-19T01:45:28;25.77;;;16.58;;
5774;SDS011;2913;51.120;6.772;2022-08-19T01:47:56;29.27;;;16.55;;
5774;SDS011;2913;51.120;6.772;2022-08-19T01:50:22;24.83;;;15.35;;
5774;SDS011;2913;51.120;6.772;2022-08-19T01:52:48;21.52;;;15.35;;
5774;SDS011;2913;51.120;6.772;2022-08-19T01:55:15;29.75;;;15.52;;
5774;SDS011;2913;51.120;6.772;2022-08-19T01:57:43;25.10;;;15.90;;
5774;SDS011;2913;51.120;6.772;2022-08-19T02:00:12;22.98;;;16.38;;
5774;SDS011;2913;51.120;6.772;2022-08-19T02:02:42;31.00;;;15.70;;
5774;SDS011;2913;51.120;6.772;2022-08-19T02:05:10;27.30;;;16.45;;
5774;SDS011;2913;51.120;6.772;2022-08-19T02:07:43;24.88;;;16.17;;
5774;SDS011;2913;51.120;6.772;2022-08-19T02:10:11;32.33;;;17.45;;
5774;SDS011;2913;51.120;6.772;2022-08-19T02:12:42;23.38;;;15.95;;
5774;SDS011;2913;51.120;6.772;2022-08-19T02:15:08;31.35;;;17.48;;
5774;SDS011;2913;51.120;6.772;2022-08-19T02:17:37;28.65;;;17.48;;
5774;SDS011;2913;51.120;6.772;2022-08-19T02:20:03;28.75;;;17.63;;
5774;SDS011;2913;51.120;6.772;2022-08-19T02:22:30;34.63;;;18.55;;
5774;SDS011;2913;51.120;6.772;2022-08-19T02:24:56;28.23;;;17.45;;
5774;SDS011;2913;51.120;6.772;2022-08-19T02:27:22;31.88;;;18.02;;
5774;SDS011;2913;51.120;6.772;2022-08-19T02:29:48;25.60;;;17.10;;
5774;SDS011;2913;51.120;6.772;2022-08-19T02:32:17;30.83;;;17.63;;
5774;SDS011;2913;51.120;6.772;2022-08-19T02:34:46;30.45;;;18.05;;
5774;SDS011;2913;51.120;6.772;2022-08-19T02:37:12;37.70;;;18.02;;
5774;SDS011;2913;51.120;6.772;2022-08-19T02:39:59;30.52;;;18.30;;
5774;SDS011;2913;51.120;6.772;2022-08-19T02:42:26;47.92;;;19.48;;
5774;SDS011;2913;51.120;6.772;2022-08-19T02:44:51;31.70;;;18.17;;
5774;SDS011;2913;51.120;6.772;2022-08-19T02:47:20;36.80;;;19.10;;
5774;SDS011;2913;51.120;6.772;2022-08-19T02:49:46;35.30;;;18.45;;
5774;SDS011;2913;51.120;6.772;2022-08-19T02:52:14;30.92;;;18.48;;
5774;SDS011;2913;51.120;6.772;2022-08-19T02:54:40;36.05;;;18.88;;
5774;SDS011;2913;51.120;6.772;2022-08-19T02:57:06;31.30;;;18.63;;
5774;SDS011;2913;51.120;6.772;2022-08-19T02:59:33;26.52;;;17.67;;
5774;SDS011;2913;51.120;6.772;2022-08-19T03:01:58;29.58;;;17.05;;
5774;SDS011;2913;51.120;6.772;2022-08-19T03:04:24;25.90;;;16.75;;
5774;SDS011;2913;51.120;6.772;2022-08-19T03:06:50;29.95;;;18.10;;
5774;SDS011;2913;51.120;6.772;2022-08-19T03:09:17;38.65;;;19.20;;
5774;SDS011;2913;51.120;6.772;2022-08-19T03:11:44;37.60;;;18.83;;
5774;SDS011;2913;51.120;6.772;2022-08-19T03:14:12;47.50;;;21.45;;
5774;SDS011;2913;51.120;6.772;2022-08-19T03:16:48;29.23;;;18.25;;
5774;SDS011;2913;51.120;6.772;2022-08-19T03:19:20;38.50;;;19.48;;
5774;SDS011;2913;51.120;6.772;2022-08-19T03:21:48;33.22;;;19.77;;
5774;SDS011;2913;51.120;6.772;2022-08-19T03:24:16;35.53;;;20.25;;
5774;SDS011;2913;51.120;6.772;2022-08-19T03:26:43;38.22;;;20.23;;
5774;SDS011;2913;51.120;6.772;2022-08-19T03:29:12;43.67;;;21.25;;
5774;SDS011;2913;51.120;6.772;2022-08-19T03:31:39;48.00;;;21.58;;
5774;SDS011;2913;51.120;6.772;2022-08-19T03:34:05;45.47;;;21.63;;
5774;SDS011;2913;51.120;6.772;2022-08-19T03:36:32;42.63;;;21.83;;
5774;SDS011;2913;51.120;6.772;2022-08-19T03:39:00;45.92;;;22.63;;
5774;SDS011;2913;51.120;6.772;2022-08-19T03:41:30;50.78;;;22.13;;
5774;SDS011;2913;51.120;6.772;2022-08-19T03:43:58;46.33;;;24.50;;
5774;SDS011;2913;51.120;6.772;2022-08-19T03:46:28;49.60;;;23.90;;
5774;SDS011;2913;51.120;6.772;2022-08-19T03:48:58;65.13;;;26.75;;
5774;SDS011;2913;51.120;6.772;2022-08-19T03:51:31;55.70;;;27.92;;
5774;SDS011;2913;51.120;6.772;2022-08-19T03:54:03;53.80;;;28.45;;
5774;SDS011;2913;51.120;6.772;2022-08-19T03:56:33;64.72;;;30.40;;
5774;SDS011;2913;51.120;6.772;2022-08-19T03:59:00;59.42;;;30.40;;
5774;SDS011;2913;51.120;6.772;2022-08-19T04:01:27;61.00;;;31.00;;
5774;SDS011;2913;51.120;6.772;2022-08-19T04:03:53;56.70;;;33.42;;
5774;SDS011;2913;51.120;6.772;2022-08-19T04:06:26;74.35;;;34.08;;
5774;SDS011;2913;51.120;6.772;2022-08-19T04:08:56;59.05;;;33.38;;
5774;SDS011;2913;51.120;6.772;2022-08-19T04:11:27;66.85;;;32.88;;
5774;SDS011;2913;51.120;6.772;2022-08-19T04:13:59;64.43;;;33.28;;
5774;SDS011;2913;51.120;6.772;2022-08-19T04:16:26;58.75;;;32.80;;
5774;SDS011;2913;51.120;6.772;2022-08-19T04:18:54;66.18;;;34.83;;
5774;SDS011;2913;51.120;6.772;2022-08-19T04:21:26;62.90;;;33.47;;
5774;SDS011;2913;51.120;6.772;2022-08-19T04:23:52;61.25;;;34.67;;
5774;SDS011;2913;51.120;6.772;2022-08-19T04:26:21;64.18;;;35.65;;
5774;SDS011;2913;51.120;6.772;2022-08-19T04:28:51;68.05;;;35.92;;
5774;SDS011;2913;51.120;6.772;2022-08-19T04:31:22;62.45;;;35.75;;
5774;SDS011;2913;51.120;6.772;2022-08-19T04:33:55;67.05;;;35.80;;
5774;SDS011;2913;51.120;6.772;2022-08-19T04:36:25;62.47;;;36.08;;
5774;SDS011;2913;51.120;6.772;2022-08-19T04:38:54;69.32;;;39.22;;
5774;SDS011;2913;51.120;6.772;2022-08-19T04:41:26;65.45;;;38.28;;
5774;SDS011;2913;51.120;6.772;2022-08-19T04:44:13;71.65;;;36.50;;
5774;SDS011;2913;51.120;6.772;2022-08-19T04:46:42;63.72;;;36.92;;
5774;SDS011;2913;51.120;6.772;2022-08-19T04:49:09;62.20;;;36.35;;
5774;SDS011;2913;51.120;6.772;2022-08-19T04:51:39;72.32;;;40.00;;
5774;SDS011;2913;51.120;6.772;2022-08-19T04:54:07;70.63;;;39.90;;
5774;SDS011;2913;51.120;6.772;2022-08-19T04:56:33;74.85;;;41.10;;
5774;SDS011;2913;51.120;6.772;2022-08-19T04:58:59;75.05;;;42.40;;
5774;SDS011;2913;51.120;6.772;2022-08-19T05:01:29;71.07;;;41.50;;
5774;SDS011;2913;51.120;6.772;2022-08-19T05:03:57;72.57;;;40.53;;
5774;SDS011;2913;51.120;6.772;2022-08-19T05:06:24;76.28;;;42.78;;
5774;SDS011;2913;51.120;6.772;2022-08-19T05:08:50;79.80;;;42.72;;
5774;SDS011;2913;51.120;6.772;2022-08-19T05:11:18;76.00;;;42.40;;
5774;SDS011;2913;51.120;6.772;2022-08-19T05:13:46;84.68;;;44.65;;
5774;SDS011;2913;51.120;6.772;2022-08-19T05:16:16;82.07;;;43.35;;
5774;SDS011;2913;51.120;6.772;2022-08-19T05:18:43;75.22;;;41.67;;
5774;SDS011;2913;51.120;6.772;2022-08-19T05:21:28;74.60;;;42.83;;
5774;SDS011;2913;51.120;6.772;2022-08-19T05:24:13;84.10;;;43.17;;
5774;SDS011;2913;51.120;6.772;2022-08-19T05:26:40;74.15;;;42.08;;
5774;SDS011;2913;51.120;6.772;2022-08-19T05:29:07;78.78;;;44.67;;
5774;SDS011;2913;51.120;6.772;2022-08-19T05:31:34;78.20;;;43.90;;
5774;SDS011;2913;51.120;6.772;2022-08-19T05:34:00;82.90;;;44.40;;
5774;SDS011;2913;51.120;6.772;2022-08-19T05:36:29;77.40;;;43.33;;
5774;SDS011;2913;51.120;6.772;2022-08-19T05:38:59;82.32;;;43.70;;
5774;SDS011;2913;51.120;6.772;2022-08-19T05:41:28;79.13;;;43.85;;
5774;SDS011;2913;51.120;6.772;2022-08-19T05:44:00;83.25;;;43.97;;
5774;SDS011;2913;51.120;6.772;2022-08-19T05:46:27;75.22;;;41.55;;
5774;SDS011;2913;51.120;6.772;2022-08-19T05:48:58;81.05;;;42.38;;
5774;SDS011;2913;51.120;6.772;2022-08-19T05:51:24;76.28;;;42.55;;
5774;SDS011;2913;51.120;6.772;2022-08-19T05:53:50;72.90;;;42.00;;
5774;SDS011;2913;51.120;6.772;2022-08-19T05:56:19;74.45;;;41.13;;
5774;SDS011;2913;51.120;6.772;2022-08-19T05:58:47;76.72;;;41.10;;
5774;SDS011;2913;51.120;6.772;2022-08-19T06:01:16;79.10;;;40.40;;
5774;SDS011;2913;51.120;6.772;2022-08-19T06:03:43;73.10;;;40.47;;
5774;SDS011;2913;51.120;6.772;2022-08-19T06:06:13;81.90;;;39.03;;
5774;SDS011;2913;51.120;6.772;2022-08-19T06:08:42;65.55;;;39.10;;
5774;SDS011;2913;51.120;6.772;2022-08-19T06:11:17;69.78;;;38.08;;
5774;SDS011;2913;51.120;6.772;2022-08-19T06:13:48;79.75;;;38.80;;
5774;SDS011;2913;51.120;6.772;2022-08-19T06:16:18;63.80;;;38.13;;
5774;SDS011;2913;51.120;6.772;2022-08-19T06:18:48;67.45;;;38.15;;
5774;SDS011;2913;51.120;6.772;2022-08-19T06:21:18;79.95;;;38.13;;
5774;SDS011;2913;51.120;6.772;2022-08-19T06:23:52;79.30;;;37.03;;
5774;SDS011;2913;51.120;6.772;2022-08-19T06:26:19;76.07;;;37.00;;
5774;SDS011;2913;51.120;6.772;2022-08-19T06:28:45;76.68;;;39.15;;
5774;SDS011;2913;51.120;6.772;2022-08-19T06:31:13;67.75;;;38.13;;
5774;SDS011;2913;51.120;6.772;2022-08-19T06:33:41;68.35;;;37.20;;
5774;SDS011;2913;51.120;6.772;2022-08-19T06:36:07;67.93;;;36.97;;
5774;SDS011;2913;51.120;6.772;2022-08-19T06:38:41;67.93;;;36.85;;
5774;SDS011;2913;51.120;6.772;2022-08-19T06:41:09;70.90;;;36.60;;
5774;SDS011;2913;51.120;6.772;2022-08-19T06:43:37;67.53;;;37.30;;
5774;SDS011;2913;51.120;6.772;2022-08-19T06:46:02;69.75;;;36.95;;
5774;SDS011;2913;51.120;6.772;2022-08-19T06:48:28;71.50;;;37.38;;
5774;SDS011;2913;51.120;6.772;2022-08-19T06:50:54;70.38;;;36.05;;
5774;SDS011;2913;51.120;6.772;2022-08-19T06:53:21;71.82;;;36.03;;
5774;SDS011;2913;51.120;6.772;2022-08-19T06:55:46;59.58;;;35.38;;
5774;SDS011;2913;51.120;6.772;2022-08-19T06:58:12;59.20;;;35.90;;
5774;SDS011;2913;51.120;6.772;2022-08-19T07:00:38;65.78;;;35.30;;
5774;SDS011;2913;51.120;6.772;2022-08-19T07:03:08;71.15;;;35.75;;
5774;SDS011;2913;51.120;6.772;2022-08-19T07:05:43;66.78;;;35.80;;
5774;SDS011;2913;51.120;6.772;2022-08-19T07:08:11;68.15;;;35.28;;
5774;SDS011;2913;51.120;6.772;2022-08-19T07:10:42;62.25;;;33.85;;
5774;SDS011;2913;51.120;6.772;2022-08-19T07:13:08;57.92;;;34.28;;
5774;SDS011;2913;51.120;6.772;2022-08-19T07:15:35;66.85;;;34.85;;
5774;SDS011;2913;51.120;6.772;2022-08-19T07:18:03;68.30;;;36.28;;
5774;SDS011;2913;51.120;6.772;2022-08-19T07:20:31;65.70;;;34.55;;
5774;SDS011;2913;51.120;6.772;2022-08-19T07:22:57;66.35;;;35.90;;
5774;SDS011;2913;51.120;6.772;2022-08-19T07:25:25;69.22;;;36.47;;
5774;SDS011;2913;51.120;6.772;2022-08-19T07:27:52;71.18;;;37.83;;
5774;SDS011;2913;51.120;6.772;2022-08-19T07:30:17;65.88;;;35.20;;
5774;SDS011;2913;51.120;6.772;2022-08-19T07:32:43;64.07;;;36.90;;
5774;SDS011;2913;51.120;6.772;2022-08-19T07:35:11;72.95;;;34.83;;
5774;SDS011;2913;51.120;6.772;2022-08-19T07:37:39;72.03;;;37.72;;
5774;SDS011;2913;51.120;6.772;2022-08-19T07:40:09;72.82;;;37.10;;
5774;SDS011;2913;51.120;6.772;2022-08-19T07:42:35;80.72;;;37.85;;
5774;SDS011;2913;51.120;6.772;2022-08-19T07:45:03;74.75;;;37.85;;
5774;SDS011;2913;51.120;6.772;2022-08-19T07:47:34;84.60;;;40.17;;
5774;SDS011;2913;51.120;6.772;2022-08-19T07:50:03;80.35;;;38.78;;
5774;SDS011;2913;51.120;6.772;2022-08-19T07:52:31;78.63;;;40.17;;
5774;SDS011;2913;51.120;6.772;2022-08-19T07:55:00;79.72;;;40.42;;
5774;SDS011;2913;51.120;6.772;2022-08-19T07:57:31;85.75;;;43.60;;
5774;SDS011;2913;51.120;6.772;2022-08-19T07:59:56;90.95;;;43.80;;
5774;SDS011;2913;51.120;6.772;2022-08-19T08:02:22;97.00;;;44.28;;
5774;SDS011;2913;51.120;6.772;2022-08-19T08:04:50;90.97;;;44.72;;
5774;SDS011;2913;51.120;6.772;2022-08-19T08:07:34;87.38;;;44.35;;
5774;SDS011;2913;51.120;6.772;2022-08-19T08:10:18;94.32;;;43.65;;
5774;SDS011;2913;51.120;6.772;2022-08-19T08:12:48;91.55;;;43.13;;
5774;SDS011;2913;51.120;6.772;2022-08-19T08:15:15;93.18;;;42.90;;
5774;SDS011;2913;51.120;6.772;2022-08-19T08:17:46;88.55;;;42.53;;
5774;SDS011;2913;51.120;6.772;2022-08-19T08:20:13;81.80;;;41.75;;
5774;SDS011;2913;51.120;6.772;2022-08-19T08:22:45;87.28;;;41.08;;
5774;SDS011;2913;51.120;6.772;2022-08-19T08:25:30;75.38;;;36.60;;
5774;SDS011;2913;51.120;6.772;2022-08-19T08:27:56;83.95;;;39.25;;
5774;SDS011;2913;51.120;6.772;2022-08-19T08:30:25;79.30;;;38.80;;
5774;SDS011;2913;51.120;6.772;2022-08-19T08:32:52;76.15;;;38.35;;
5774;SDS011;2913;51.120;6.772;2022-08-19T08:35:21;76.68;;;38.42;;
5774;SDS011;2913;51.120;6.772;2022-08-19T08:37:48;63.92;;;35.15;;
5774;SDS011;2913;51.120;6.772;2022-08-19T08:43:22;71.50;;;34.53;;
5774;SDS011;2913;51.120;6.772;2022-08-19T08:46:04;68.88;;;33.45;;
5774;SDS011;2913;51.120;6.772;2022-08-19T08:51:05;67.80;;;35.10;;
5774;SDS011;2913;51.120;6.772;2022-08-19T08:53:35;64.95;;;33.72;;
5774;SDS011;2913;51.120;6.772;2022-08-19T08:56:03;72.80;;;34.60;;
5774;SDS011;2913;51.120;6.772;2022-08-19T08:58:49;67.72;;;34.30;;
5774;SDS011;2913;51.120;6.772;2022-08-19T09:01:21;66.43;;;32.03;;
5774;SDS011;2913;51.120;6.772;2022-08-19T09:03:47;56.92;;;28.85;;
5774;SDS011;2913;51.120;6.772;2022-08-19T09:09:16;56.13;;;28.67;;
5774;SDS011;2913;51.120;6.772;2022-08-19T09:14:47;47.67;;;26.23;;
5774;SDS011;2913;51.120;6.772;2022-08-19T09:17:27;44.45;;;24.42;;
5774;SDS011;2913;51.120;6.772;2022-08-19T09:20:00;47.53;;;26.35;;
5774;SDS011;2913;51.120;6.772;2022-08-19T09:22:30;44.00;;;24.13;;
5774;SDS011;2913;51.120;6.772;2022-08-19T09:25:01;46.67;;;24.08;;
5774;SDS011;2913;51.120;6.772;2022-08-19T09:27:32;39.00;;;22.47;;
5774;SDS011;2913;51.120;6.772;2022-08-19T09:30:00;46.30;;;20.58;;
5774;SDS011;2913;51.120;6.772;2022-08-19T09:32:26;33.97;;;18.73;;
5774;SDS011;2913;51.120;6.772;2022-08-19T09:34:52;33.30;;;17.15;;
5774;SDS011;2913;51.120;6.772;2022-08-19T09:37:23;29.95;;;16.88;;
5774;SDS011;2913;51.120;6.772;2022-08-19T09:39:51;29.00;;;14.73;;
5774;SDS011;2913;51.120;6.772;2022-08-19T09:42:18;25.70;;;15.35;;
5774;SDS011;2913;51.120;6.772;2022-08-19T09:44:44;23.30;;;15.52;;
5774;SDS011;2913;51.120;6.772;2022-08-19T09:47:11;26.58;;;15.98;;
5774;SDS011;2913;51.120;6.772;2022-08-19T09:49:40;35.53;;;18.42;;
5774;SDS011;2913;51.120;6.772;2022-08-19T09:52:07;37.05;;;17.20;;
5774;SDS011;2913;51.120;6.772;2022-08-19T09:54:35;33.50;;;16.08;;
5774;SDS011;2913;51.120;6.772;2022-08-19T09:57:03;38.78;;;15.98;;
5774;SDS011;2913;51.120;6.772;2022-08-19T09:59:31;23.63;;;13.10;;
5774;SDS011;2913;51.120;6.772;2022-08-19T10:01:57;24.77;;;14.65;;
5774;SDS011;2913;51.120;6.772;2022-08-19T10:04:22;28.67;;;13.57;;
5774;SDS011;2913;51.120;6.772;2022-08-19T10:07:14;21.13;;;12.65;;
5774;SDS011;2913;51.120;6.772;2022-08-19T10:09:40;20.80;;;11.73;;
5774;SDS011;2913;51.120;6.772;2022-08-19T10:12:06;23.08;;;12.23;;
5774;SDS011;2913;51.120;6.772;2022-08-19T10:14:35;23.17;;;11.38;;
5774;SDS011;2913;51.120;6.772;2022-08-19T10:17:01;33.08;;;11.57;;
5774;SDS011;2913;51.120;6.772;2022-08-19T10:19:27;26.45;;;11.07;;
5774;SDS011;2913;51.120;6.772;2022-08-19T10:22:02;28.73;;;12.40;;
5774;SDS011;2913;51.120;6.772;2022-08-19T10:24:32;25.30;;;12.68;;
5774;SDS011;2913;51.120;6.772;2022-08-19T10:26:59;26.40;;;12.35;;
5774;SDS011;2913;51.120;6.772;2022-08-19T10:29:31;19.00;;;11.77;;
5774;SDS011;2913;51.120;6.772;2022-08-19T10:32:00;20.10;;;11.68;;
5774;SDS011;2913;51.120;6.772;2022-08-19T10:34:26;24.45;;;13.80;;
5774;SDS011;2913;51.120;6.772;2022-08-19T10:36:53;22.65;;;13.35;;
5774;SDS011;2913;51.120;6.772;2022-08-19T10:39:22;24.85;;;12.80;;
5774;SDS011;2913;51.120;6.772;2022-08-19T10:41:47;24.40;;;13.10;;
5774;SDS011;2913;51.120;6.772;2022-08-19T10:44:15;23.10;;;14.02;;
5774;SDS011;2913;51.120;6.772;2022-08-19T10:46:43;29.23;;;16.45;;
5774;SDS011;2913;51.120;6.772;2022-08-19T10:49:11;31.27;;;16.67;;
5774;SDS011;2913;51.120;6.772;2022-08-19T10:51:38;27.23;;;14.90;;
5774;SDS011;2913;51.120;6.772;2022-08-19T10:54:23;23.10;;;14.27;;
5774;SDS011;2913;51.120;6.772;2022-08-19T10:57:09;21.75;;;13.27;;
5774;SDS011;2913;51.120;6.772;2022-08-19T10:59:37;24.02;;;12.13;;
5774;SDS011;2913;51.120;6.772;2022-08-19T11:02:05;19.75;;;12.48;;
5774;SDS011;2913;51.120;6.772;2022-08-19T11:04:34;24.60;;;12.95;;
5774;SDS011;2913;51.120;6.772;2022-08-19T11:07:01;20.05;;;12.98;;
5774;SDS011;2913;51.120;6.772;2022-08-19T11:09:30;24.85;;;12.20;;
5774;SDS011;2913;51.120;6.772;2022-08-19T11:11:56;14.98;;;10.95;;
5774;SDS011;2913;51.120;6.772;2022-08-19T11:14:23;27.17;;;10.02;;
5774;SDS011;2913;51.120;6.772;2022-08-19T11:16:50;23.95;;;12.05;;
5774;SDS011;2913;51.120;6.772;2022-08-19T11:19:18;25.52;;;12.25;;
5774;SDS011;2913;51.120;6.772;2022-08-19T11:21:45;21.00;;;9.73;;
5774;SDS011;2913;51.120;6.772;2022-08-19T11:24:16;24.58;;;13.45;;
5774;SDS011;2913;51.120;6.772;2022-08-19T11:26:44;18.77;;;11.65;;
5774;SDS011;2913;51.120;6.772;2022-08-19T11:29:11;17.20;;;9.77;;
5774;SDS011;2913;51.120;6.772;2022-08-19T11:31:38;23.00;;;10.98;;
5774;SDS011;2913;51.120;6.772;2022-08-19T11:34:13;15.55;;;9.77;;
5774;SDS011;2913;51.120;6.772;2022-08-19T11:36:42;19.63;;;11.35;;
5774;SDS011;2913;51.120;6.772;2022-08-19T11:39:13;22.98;;;9.90;;
5774;SDS011;2913;51.120;6.772;2022-08-19T11:41:40;21.23;;;12.27;;
5774;SDS011;2913;51.120;6.772;2022-08-19T11:44:06;19.05;;;9.10;;
5774;SDS011;2913;51.120;6.772;2022-08-19T11:46:35;16.60;;;9.18;;
5774;SDS011;2913;51.120;6.772;2022-08-19T11:49:05;19.75;;;10.18;;
5774;SDS011;2913;51.120;6.772;2022-08-19T11:51:32;19.27;;;9.05;;
5774;SDS011;2913;51.120;6.772;2022-08-19T11:54:00;21.77;;;9.80;;
5774;SDS011;2913;51.120;6.772;2022-08-19T11:56:31;24.52;;;10.15;;
5774;SDS011;2913;51.120;6.772;2022-08-19T11:58:57;17.23;;;10.77;;
5774;SDS011;2913;51.120;6.772;2022-08-19T12:01:25;20.45;;;10.75;;
5774;SDS011;2913;51.120;6.772;2022-08-19T12:03:55;25.05;;;11.57;;
5774;SDS011;2913;51.120;6.772;2022-08-19T12:06:26;19.35;;;10.45;;
5774;SDS011;2913;51.120;6.772;2022-08-19T12:08:58;18.70;;;10.23;;
5774;SDS011;2913;51.120;6.772;2022-08-19T12:11:28;19.77;;;10.60;;
5774;SDS011;2913;51.120;6.772;2022-08-19T12:13:56;19.98;;;9.82;;
5774;SDS011;2913;51.120;6.772;2022-08-19T12:16:24;16.35;;;9.60;;
5774;SDS011;2913;51.120;6.772;2022-08-19T12:18:51;21.48;;;9.98;;
5774;SDS011;2913;51.120;6.772;2022-08-19T12:21:22;19.15;;;9.90;;
5774;SDS011;2913;51.120;6.772;2022-08-19T12:23:52;16.33;;;8.32;;
5774;SDS011;2913;51.120;6.772;2022-08-19T12:26:19;24.02;;;10.45;;
5774;SDS011;2913;51.120;6.772;2022-08-19T12:28:45;18.50;;;11.07;;
5774;SDS011;2913;51.120;6.772;2022-08-19T12:31:12;17.17;;;8.93;;
5774;SDS011;2913;51.120;6.772;2022-08-19T12:33:39;17.10;;;9.10;;
5774;SDS011;2913;51.120;6.772;2022-08-19T12:36:08;14.77;;;9.00;;
5774;SDS011;2913;51.120;6.772;2022-08-19T12:38:35;15.90;;;8.98;;
5774;SDS011;2913;51.120;6.772;2022-08-19T12:41:09;14.88;;;8.32;;
5774;SDS011;2913;51.120;6.772;2022-08-19T12:46:09;16.08;;;6.95;;
5774;SDS011;2913;51.120;6.772;2022-08-19T12:48:37;16.05;;;7.00;;
5774;SDS011;2913;51.120;6.772;2022-08-19T12:51:07;15.05;;;6.57;;
5774;SDS011;2913;51.120;6.772;2022-08-19T12:53:35;11.27;;;7.47;;
5774;SDS011;2913;51.120;6.772;2022-08-19T12:56:03;13.63;;;7.28;;
5774;SDS011;2913;51.120;6.772;2022-08-19T12:58:32;17.55;;;8.00;;
5774;SDS011;2913;51.120;6.772;2022-08-19T13:00:59;15.13;;;6.50;;
5774;SDS011;2913;51.120;6.772;2022-08-19T13:03:30;20.13;;;8.70;;
5774;SDS011;2913;51.120;6.772;2022-08-19T13:05:58;14.88;;;8.00;;
5774;SDS011;2913;51.120;6.772;2022-08-19T13:08:24;16.75;;;6.80;;
5774;SDS011;2913;51.120;6.772;2022-08-19T13:10:52;13.43;;;6.40;;
5774;SDS011;2913;51.120;6.772;2022-08-19T13:13:20;14.13;;;7.50;;
5774;SDS011;2913;51.120;6.772;2022-08-19T13:15:50;12.25;;;6.28;;
5774;SDS011;2913;51.120;6.772;2022-08-19T13:18:18;9.18;;;6.15;;
5774;SDS011;2913;51.120;6.772;2022-08-19T13:20:46;14.40;;;5.78;;
5774;SDS011;2913;51.120;6.772;2022-08-19T13:23:11;12.25;;;5.70;;
5774;SDS011;2913;51.120;6.772;2022-08-19T13:25:39;13.48;;;5.90;;
5774;SDS011;2913;51.120;6.772;2022-08-19T13:28:05;9.80;;;5.63;;
5774;SDS011;2913;51.120;6.772;2022-08-19T13:30:31;11.85;;;5.55;;
5774;SDS011;2913;51.120;6.772;2022-08-19T13:33:16;14.55;;;5.57;;
5774;SDS011;2913;51.120;6.772;2022-08-19T13:38:27;11.80;;;5.68;;
5774;SDS011;2913;51.120;6.772;2022-08-19T13:40:55;9.57;;;5.40;;
5774;SDS011;2913;51.120;6.772;2022-08-19T13:43:22;13.45;;;5.85;;
5774;SDS011;2913;51.120;6.772;2022-08-19T13:45:54;15.60;;;5.38;;
5774;SDS011;2913;51.120;6.772;2022-08-19T13:48:22;9.88;;;5.03;;
5774;SDS011;2913;51.120;6.772;2022-08-19T13:50:51;10.20;;;4.75;;
5774;SDS011;2913;51.120;6.772;2022-08-19T13:53:19;10.65;;;4.70;;
5774;SDS011;2913;51.120;6.772;2022-08-19T13:55:44;11.32;;;4.45;;
5774;SDS011;2913;51.120;6.772;2022-08-19T13:58:10;14.60;;;4.75;;
5774;SDS011;2913;51.120;6.772;2022-08-19T14:00:39;10.82;;;4.90;;
5774;SDS011;2913;51.120;6.772;2022-08-19T14:03:06;11.63;;;4.55;;
5774;SDS011;2913;51.120;6.772;2022-08-19T14:05:32;11.25;;;4.75;;
5774;SDS011;2913;51.120;6.772;2022-08-19T14:07:58;6.80;;;4.88;;
5774;SDS011;2913;51.120;6.772;2022-08-19T14:10:25;9.48;;;4.60;;
5774;SDS011;2913;51.120;6.772;2022-08-19T14:12:55;14.48;;;4.78;;
5774;SDS011;2913;51.120;6.772;2022-08-19T14:15:23;11.15;;;4.70;;
5774;SDS011;2913;51.120;6.772;2022-08-19T14:17:52;12.05;;;4.72;;
5774;SDS011;2913;51.120;6.772;2022-08-19T14:20:21;9.60;;;4.95;;
5774;SDS011;2913;51.120;6.772;2022-08-19T14:22:50;15.77;;;5.27;;
5774;SDS011;2913;51.120;6.772;2022-08-19T14:25:20;14.07;;;5.00;;
5774;SDS011;2913;51.120;6.772;2022-08-19T14:27:48;16.30;;;4.50;;
5774;SDS011;2913;51.120;6.772;2022-08-19T14:30:15;8.45;;;4.03;;
5774;SDS011;2913;51.120;6.772;2022-08-19T14:32:43;14.55;;;4.95;;
5774;SDS011;2913;51.120;6.772;2022-08-19T14:35:14;9.05;;;4.18;;
5774;SDS011;2913;51.120;6.772;2022-08-19T14:37:41;9.13;;;4.32;;
5774;SDS011;2913;51.120;6.772;2022-08-19T14:40:10;9.48;;;3.90;;
5774;SDS011;2913;51.120;6.772;2022-08-19T14:42:37;10.68;;;3.85;;
5774;SDS011;2913;51.120;6.772;2022-08-19T14:45:03;7.55;;;3.60;;
5774;SDS011;2913;51.120;6.772;2022-08-19T14:47:32;7.07;;;3.30;;
5774;SDS011;2913;51.120;6.772;2022-08-19T14:50:00;5.80;;;3.22;;
5774;SDS011;2913;51.120;6.772;2022-08-19T14:52:28;7.05;;;3.33;;
5774;SDS011;2913;51.120;6.772;2022-08-19T14:54:54;5.82;;;3.35;;
5774;SDS011;2913;51.120;6.772;2022-08-19T14:57:19;6.68;;;2.85;;
5774;SDS011;2913;51.120;6.772;2022-08-19T14:59:45;11.05;;;3.10;;
5774;SDS011;2913;51.120;6.772;2022-08-19T15:02:11;6.43;;;3.30;;
5774;SDS011;2913;51.120;6.772;2022-08-19T15:04:39;4.55;;;3.10;;
5774;SDS011;2913;51.120;6.772;2022-08-19T15:07:05;5.03;;;3.13;;
5774;SDS011;2913;51.120;6.772;2022-08-19T15:09:31;9.68;;;3.25;;
5774;SDS011;2913;51.120;6.772;2022-08-19T15:11:57;7.13;;;3.70;;
5774;SDS011;2913;51.120;6.772;2022-08-19T15:14:27;6.32;;;3.30;;
5774;SDS011;2913;51.120;6.772;2022-08-19T15:16:59;8.50;;;3.08;;
5774;SDS011;2913;51.120;6.772;2022-08-19T15:19:26;8.60;;;3.95;;